Flight Track Log - Related Links

Times and Time Zones

All times are in EDT time to prevent confusion due to time zone crossing. See the SKW4664 flight status page for this flight to view local times or setup timezone preferences in your user account.

Time Position Orientation Groundspeed Altitude Reporting Facility
EDT Latitude Longitude Course Direction KTS MPH feet Rate Location/Type
Sat 03:53:56 PM 44.3256 -88.6250 316° Northwest 209 241 5,100  Level Minneapolis Center
Sat 03:54:57 PM 44.3825 -88.7058 315° West 242 278 9,300 3,512 Climbing Minneapolis Center
Sat 03:55:00 PM 44.3406 -88.9370 288° West  Level FlightAware Approximate
Sat 03:55:59 PM 44.4206 -88.7939 301° West 257 296 12,300  Level Minneapolis Center
Sat 03:56:00 PM 44.3649 -89.0424 288° West  Level FlightAware Approximate
Sat 03:57:00 PM 44.3893 -89.1478 288° West  Level FlightAware Approximate
Sat 03:57:00 PM 44.4506 -88.8947 293° West 270 311 13,900  Level Minneapolis Center
Sat 03:58:00 PM 44.4136 -89.2533 288° West  Level FlightAware Approximate
Sat 03:58:01 PM 44.4853 -89.0092 293° West 301 346 15,100  Level Minneapolis Center
Sat 03:59:02 PM 44.5275 -89.1444 294° West 345 397 16,000 439 Climbing Minneapolis Center
Sat 04:00:04 PM 44.5683 -89.2756 294° West 353 406 16,000  Level Minneapolis Center
Sat 04:01:05 PM 44.6061 -89.3975 294° West 354 407 16,000  Level Minneapolis Center
Sat 04:02:06 PM 44.6450 -89.5281 293° West 350 403 16,000  Level Minneapolis Center
Sat 04:03:08 PM 44.6844 -89.6597 293° West 351 404 16,000  Level Minneapolis Center
Sat 04:04:09 PM 44.7211 -89.7792 293° West 348 400 16,000  Level Minneapolis Center
Sat 04:05:10 PM 44.7597 -89.9094 293° West 347 399 16,000  Level Minneapolis Center
Sat 04:06:12 PM 44.7986 -90.0403 293° West 348 400 16,000  Level Minneapolis Center
Sat 04:07:13 PM 44.8375 -90.1694 293° West 344 396 16,000  Level Minneapolis Center
Sat 04:08:15 PM 44.8708 -90.2922 291° West 348 400 16,000  Level Minneapolis Center
Sat 04:09:16 PM 44.8742 -90.4378 272° West 353 406 16,000  Level Minneapolis Center
Sat 04:10:17 PM 44.8783 -90.5858 272° West 359 413 16,000  Level Minneapolis Center
Sat 04:11:19 PM 44.8831 -90.7319 273° West 360 414 16,000  Level Minneapolis Center
Sat 04:12:21 PM 44.8858 -90.8681 272° West 359 413 16,000  Level Minneapolis Center
Sat 04:13:22 PM 44.8881 -91.0144 271° West 359 413 16,000  Level Minneapolis Center
Sat 04:14:23 PM 44.8922 -91.1606 272° West 360 414 16,000  Level Minneapolis Center
Sat 04:15:25 PM 44.8953 -91.3067 272° West 357 411 16,000  Level Minneapolis Center
Sat 04:16:26 PM 44.8986 -91.4417 272° West 357 411 16,000  Level Minneapolis Center
Sat 04:17:28 PM 44.9169 -91.5836 280° West 355 409 16,000  Level Minneapolis Center
Sat 04:18:29 PM 44.9408 -91.6997 286° West 348 400 16,000  Level Minneapolis Center
Sat 04:19:31 PM 44.9703 -91.8583 285° West 350 403 16,000  Level Minneapolis Center
Sat 04:19:48 PM 44.9861 -91.8831 312° West 351 404 16,000 -162 Level FAA TRACON SMA TRACON (SMA)
Sat 04:20:08 PM 44.9950 -91.9339 284° West 350 403 15,900 -649 Descending FAA TRACON SMA TRACON (SMA)
Sat 04:20:25 PM 45.0017 -91.9742 283° West 348 400 15,600 -1,297 Descending FAA TRACON SMA TRACON (SMA)
Sat 04:20:45 PM 45.0075 -92.0139 282° West 342 394 15,100 -1,650 Descending FAA TRACON SMA TRACON (SMA)
Sat 04:21:05 PM 45.0142 -92.0536 283° West 341 392 14,500 -2,100 Descending FAA TRACON SMA TRACON (SMA)
Sat 04:21:25 PM 45.0225 -92.1050 283° West 346 398 13,700 -2,250 Descending FAA TRACON SMA TRACON (SMA)
Sat 04:21:45 PM 45.0300 -92.1453 285° West 346 398 13,000 -2,250 Descending FAA TRACON SMA TRACON (SMA)
Sat 04:22:05 PM 45.0389 -92.1936 285° West 338 389 12,200 -2,250 Descending FAA TRACON SMA TRACON (SMA)
Sat 04:22:25 PM 45.0447 -92.2325 282° West 333 383 11,500 -1,650 Descending FAA TRACON SMA TRACON (SMA)
Sat 04:22:45 PM 45.0497 -92.2717 280° West 331 381 11,100 -750 Descending FAA TRACON SMA TRACON (SMA)
Sat 04:23:05 PM 45.0478 -92.3217 267° West 332 382 11,000 -150 Descending FAA TRACON SMA TRACON (SMA)
Sat 04:23:25 PM 45.0408 -92.3614 256° West 337 388 11,000  Level FAA TRACON SMA TRACON (SMA)
Sat 04:23:45 PM 45.0358 -92.4014 260° West 337 388 11,000  Level FAA TRACON SMA TRACON (SMA)
Sat 04:24:05 PM 45.0281 -92.4511 258° West 336 387 11,000  Level FAA TRACON SMA TRACON (SMA)
Sat 04:24:25 PM 45.0178 -92.4889 249° West 335 386 11,000 -300 Level FAA TRACON SMA TRACON (SMA)
Sat 04:24:45 PM 45.0033 -92.5217 238° Southwest 329 379 10,800 -600 Descending FAA TRACON SMA TRACON (SMA)
Sat 04:25:05 PM 44.9869 -92.5511 232° Southwest 318 366 10,600 -769 Descending FAA TRACON SMA TRACON (SMA)
Sat 04:25:24 PM 44.9675 -92.5867 232° Southwest 299 344 10,300 -1,050 Descending FAA TRACON SMA TRACON (SMA)
Sat 04:25:45 PM 44.9533 -92.6136 233° Southwest 287 330 9,900 -1,024 Descending FAA TRACON SMA TRACON (SMA)
Sat 04:26:05 PM 44.9386 -92.6406 232° Southwest 282 325 9,600 -1,050 Descending FAA TRACON SMA TRACON (SMA)
Sat 04:26:25 PM 44.9206 -92.6739 233° Southwest 277 319 9,200 -1,200 Descending FAA TRACON SMA TRACON (SMA)
Sat 04:26:45 PM 44.9064 -92.7000 233° Southwest 275 316 8,800 -1,200 Descending FAA TRACON SMA TRACON (SMA)
Sat 04:27:05 PM 44.8919 -92.7261 232° Southwest 274 315 8,400 -1,350 Descending FAA TRACON SMA TRACON (SMA)
Sat 04:27:25 PM 44.8739 -92.7594 233° Southwest 276 318 7,900 -1,350 Descending FAA TRACON SMA TRACON (SMA)
Sat 04:27:45 PM 44.8597 -92.7853 232° Southwest 274 315 7,500 -1,200 Descending FAA TRACON SMA TRACON (SMA)
Sat 04:28:05 PM 44.8458 -92.8114 233° Southwest 271 312 7,100 -1,950 Descending FAA TRACON SMA TRACON (SMA)
Sat 04:28:25 PM 44.8281 -92.8431 232° Southwest 268 308 6,200 -2,250 Descending FAA TRACON SMA TRACON (SMA)
Sat 04:28:45 PM 44.8147 -92.8692 234° Southwest 266 306 5,600 -1,500 Descending FAA TRACON SMA TRACON (SMA)
Sat 04:29:05 PM 44.8064 -92.8978 248° West 265 305 5,200 -900 Descending FAA TRACON SMA TRACON (SMA)
Sat 04:29:25 PM 44.8075 -92.9342 272° West 247 284 5,000 -600 Descending FAA TRACON SMA TRACON (SMA)
Sat 04:29:45 PM 44.8103 -92.9611 278° West 230 265 4,800 -600 Descending FAA TRACON SMA TRACON (SMA)
Sat 04:30:05 PM 44.8133 -92.9867 280° West 218 251 4,600 -1,050 Descending FAA TRACON SMA TRACON (SMA)
Sat 04:30:25 PM 44.8181 -93.0169 282° West 209 241 4,100 -1,350 Descending FAA TRACON SMA TRACON (SMA)
Sat 04:30:45 PM 44.8222 -93.0408 284° West 205 236 3,700 -1,200 Descending FAA TRACON SMA TRACON (SMA)

Login

Don't have an account? Register now (free) for customized features, flight alerts, and more!